Time;durP1;ratioP1;P1;durP2;ratioP2;P2;SDS_P1;SDS_P2;PMS_P1;PMS_P2;Temp;Humidity;BMP_temperature;BMP_pressure;BME280_temperature;BME280_humidity;BME280_pressure;Samples;Min_cycle;Max_cycle;Signal;HPM_P1;HPM_P2
2023/12/21 00:02:26;;;;;;;9.10;2.50;;;;;;;4.43;100.00;99204.36;216854;1296;139915;-89
2023/12/21 00:07:27;;;;;;;10.30;3.30;;;;;;;4.42;100.00;99198.82;217311;1295;139199;-90
2023/12/21 00:12:27;;;;;;;11.50;3.10;;;;;;;4.41;100.00;99195.14;217095;1296;139931;-90
2023/12/21 00:17:28;;;;;;;15.60;4.20;;;;;;;4.41;100.00;99195.23;217520;1294;139172;-90
2023/12/21 00:22:28;;;;;;;14.60;3.00;;;;;;;4.41;100.00;99191.17;216787;1296;140578;-89
2023/12/21 00:27:29;;;;;;;8.80;2.90;;;;;;;4.41;100.00;99181.99;217479;1294;139805;-89
2023/12/21 00:32:29;;;;;;;11.00;2.70;;;;;;;4.41;100.00;99168.98;216970;1296;141168;-89
2023/12/21 00:37:36;;;;;;;13.80;2.80;;;;;;;4.40;100.00;99166.73;217355;1296;139846;-89
2023/12/21 00:42:38;;;;;;;11.50;3.10;;;;;;;4.39;100.00;99156.99;216818;1296;140188;-90
2023/12/21 00:47:39;;;;;;;13.10;3.00;;;;;;;4.37;100.00;99144.89;217551;1295;96092;-93
2023/12/21 00:52:39;;;;;;;9.30;1.90;;;;;;;4.35;100.00;99137.32;216925;1295;139943;-91
2023/12/21 00:57:40;;;;;;;9.90;3.10;;;;;;;4.32;100.00;99132.75;217488;1294;138772;-90
2023/12/21 01:02:40;;;;;;;9.00;2.90;;;;;;;4.29;100.00;99123.67;216933;1296;141251;-91
2023/12/21 01:07:41;;;;;;;9.30;2.60;;;;;;;4.24;100.00;99114.59;217438;1296;139032;-93
2023/12/21 01:12:42;;;;;;;10.80;2.90;;;;;;;4.22;100.00;99108.88;216900;1295;139653;-92
2023/12/21 01:17:42;;;;;;;12.20;2.70;;;;;;;4.19;100.00;99102.06;217635;1295;96089;-92
2023/12/21 01:22:43;;;;;;;12.40;3.40;;;;;;;4.15;100.00;99097.10;216842;1296;140123;-92
2023/12/21 01:27:43;;;;;;;6.70;2.50;;;;;;;4.10;100.00;99077.52;217516;1294;138949;-92
2023/12/21 01:32:44;;;;;;;7.80;3.00;;;;;;;4.06;100.00;99067.02;217042;1294;139875;-92
2023/12/21 01:37:44;;;;;;;9.50;2.80;;;;;;;4.03;100.00;99052.97;217487;1296;138510;-93
2023/12/21 01:42:45;;;;;;;6.80;2.60;;;;;;;4.01;100.00;99035.28;216938;1295;139670;-91
2023/12/21 01:47:46;;;;;;;9.10;3.10;;;;;;;3.97;100.00;99025.13;217546;1296;96042;-91
2023/12/21 01:52:47;;;;;;;7.30;2.60;;;;;;;3.93;100.00;99009.84;216850;1297;139895;-93
2023/12/21 01:57:48;;;;;;;5.40;2.40;;;;;;;3.89;100.00;99000.38;217431;1295;140409;-90
2023/12/21 02:02:50;;;;;;;7.80;2.30;;;;;;;3.86;100.00;98987.95;216884;1296;139795;-90
2023/12/21 02:07:50;;;;;;;9.50;4.20;;;;;;;3.85;100.00;98969.28;217254;1296;138635;-92
2023/12/21 02:12:51;;;;;;;8.00;2.50;;;;;;;3.82;100.00;98951.20;216923;1295;140071;-93
2023/12/21 02:17:53;;;;;;;7.70;2.90;;;;;;;3.80;100.00;98937.96;217451;1296;96198;-92
2023/12/21 02:22:56;;;;;;;9.50;3.70;;;;;;;3.78;100.00;98911.58;216947;1296;139750;-91
2023/12/21 02:27:57;;;;;;;8.40;3.50;;;;;;;3.77;100.00;98906.43;217564;1296;138480;-94
2023/12/21 02:32:57;;;;;;;9.90;3.80;;;;;;;3.76;100.00;98898.09;216912;1295;140480;-93
2023/12/21 02:37:58;;;;;;;7.50;3.40;;;;;;;3.75;100.00;98881.30;217546;1295;138666;-93
2023/12/21 02:42:59;;;;;;;8.70;3.40;;;;;;;3.74;100.00;98855.87;216875;1294;140210;-94
2023/12/21 02:47:59;;;;;;;10.00;4.10;;;;;;;3.75;100.00;98840.95;217477;1295;96315;-90
2023/12/21 02:53:00;;;;;;;8.40;3.70;;;;;;;3.75;100.00;98828.98;217006;1295;140000;-91
2023/12/21 02:58:01;;;;;;;9.10;3.90;;;;;;;3.74;100.00;98812.17;217332;1296;138603;-89
2023/12/21 03:03:02;;;;;;;8.00;3.90;;;;;;;3.74;100.00;98799.84;217004;1294;139798;-92
2023/12/21 03:08:03;;;;;;;9.20;4.30;;;;;;;3.76;100.00;98779.58;217363;1296;139247;-89
2023/12/21 03:13:04;;;;;;;8.90;4.40;;;;;;;3.77;100.00;98753.85;216827;1293;140544;-92
2023/12/21 03:18:05;;;;;;;9.40;4.60;;;;;;;3.79;100.00;98732.03;217527;1295;96177;-92
2023/12/21 03:23:17;;;;;;;10.00;4.70;;;;;;;3.79;100.00;98710.11;216969;1294;139774;-95
2023/12/21 03:28:18;;;;;;;10.80;5.20;;;;;;;3.81;100.00;98693.88;217422;1296;137581;-91
2023/12/21 03:33:18;;;;;;;13.00;6.20;;;;;;;3.83;100.00;98683.48;216842;1296;139118;-92
2023/12/21 03:38:19;;;;;;;11.10;6.30;;;;;;;3.85;100.00;98670.52;217373;1295;138848;-89
2023/12/21 03:43:20;;;;;;;13.20;6.90;;;;;;;3.87;100.00;98659.73;216872;1296;139536;-91
2023/12/21 03:48:21;;;;;;;11.10;5.90;;;;;;;3.90;100.00;98652.23;217541;1294;96032;-90
2023/12/21 03:53:24;;;;;;;11.70;5.60;;;;;;;3.92;100.00;98644.55;216790;1296;139884;-92
2023/12/21 03:58:25;;;;;;;12.30;5.90;;;;;;;3.95;100.00;98625.36;217326;1296;140003;-93
2023/12/21 04:03:25;;;;;;;13.30;5.80;;;;;;;3.98;100.00;98610.54;216850;1295;139600;-92
2023/12/21 04:08:26;;;;;;;13.10;6.00;;;;;;;4.02;100.00;98602.95;217534;1295;138848;-92
2023/12/21 04:13:27;;;;;;;14.40;5.00;;;;;;;4.05;100.00;98588.50;217002;1295;139755;-93
2023/12/21 04:18:30;;;;;;;10.30;4.80;;;;;;;4.09;100.00;98585.04;217684;1295;96815;-94
2023/12/21 04:23:31;;;;;;;12.00;5.60;;;;;;;4.12;100.00;98569.80;216939;1295;139396;-94
2023/12/21 04:28:32;;;;;;;9.60;4.60;;;;;;;4.15;100.00;98562.60;217507;1294;138755;-92
2023/12/21 04:33:33;;;;;;;10.20;5.00;;;;;;;4.19;100.00;98554.46;216975;1296;139867;-92
2023/12/21 04:38:34;;;;;;;8.60;4.50;;;;;;;4.25;100.00;98543.99;217383;1295;139026;-92
2023/12/21 04:43:35;;;;;;;8.70;4.40;;;;;;;4.28;100.00;98539.27;216908;1293;139464;-93
2023/12/21 04:48:37;;;;;;;12.60;4.90;;;;;;;4.32;100.00;98530.02;217588;1298;95948;-92
2023/12/21 04:53:37;;;;;;;10.20;5.10;;;;;;;4.36;100.00;98521.58;216964;1296;139701;-92
2023/12/21 04:58:40;;;;;;;9.90;4.80;;;;;;;4.41;100.00;98517.24;217528;1298;139506;-91
2023/12/21 05:03:41;;;;;;;10.20;4.70;;;;;;;4.44;100.00;98508.54;216770;1294;139457;-93
2023/12/21 05:08:42;;;;;;;11.50;5.40;;;;;;;4.49;100.00;98504.29;217462;1296;139777;-92
2023/12/21 05:13:43;;;;;;;8.80;4.70;;;;;;;4.53;100.00;98503.21;216886;1296;139811;-93
2023/12/21 05:18:43;;;;;;;9.10;4.70;;;;;;;4.58;100.00;98502.52;217525;1296;138614;-93
2023/12/21 05:23:44;;;;;;;8.60;4.20;;;;;;;4.64;100.00;98497.55;217056;1295;139995;-95
2023/12/21 05:28:45;;;;;;;10.20;4.40;;;;;;;4.70;100.00;98489.65;217509;1295;139377;-95
2023/12/21 05:33:46;;;;;;;8.30;4.70;;;;;;;4.76;100.00;98480.23;216792;1295;139857;-94
2023/12/21 05:38:47;;;;;;;8.80;4.90;;;;;;;4.82;100.00;98482.91;217438;1296;138702;-92
2023/12/21 05:43:48;;;;;;;10.50;5.50;;;;;;;4.88;100.00;98471.94;216841;1295;139594;-93
2023/12/21 05:48:48;;;;;;;9.10;4.80;;;;;;;4.96;100.00;98460.83;217286;1294;140287;-95
2023/12/21 05:53:50;;;;;;;11.50;4.90;;;;;;;5.05;100.00;98453.98;216923;1295;139732;-92
2023/12/21 05:58:51;;;;;;;11.60;5.30;;;;;;;5.12;100.00;98443.56;217316;1298;139315;-93
2023/12/21 06:03:51;;;;;;;10.80;5.70;;;;;;;5.20;100.00;98440.98;216913;1295;140156;-95
2023/12/21 06:08:52;;;;;;;12.90;7.60;;;;;;;5.30;100.00;98435.14;217294;1295;139303;-92
2023/12/21 06:13:53;;;;;;;10.90;6.10;;;;;;;5.37;100.00;98437.48;216811;1296;139750;-92
2023/12/21 06:18:54;;;;;;;11.70;7.50;;;;;;;5.45;100.00;98426.25;217308;1295;138640;-91
2023/12/21 06:23:55;;;;;;;10.70;6.10;;;;;;;5.55;100.00;98416.59;217145;1294;140173;-91
2023/12/21 06:28:58;;;;;;;10.80;7.10;;;;;;;5.62;100.00;98419.06;217292;1294;139654;-95
2023/12/21 06:34:01;;;;;;;13.50;8.00;;;;;;;5.69;100.00;98415.86;216787;1296;139611;-94
2023/12/21 06:39:03;;;;;;;15.10;10.20;;;;;;;5.73;100.00;98407.27;217263;1296;139214;-92
2023/12/21 06:44:05;;;;;;;13.10;8.80;;;;;;;5.78;100.00;98403.37;216733;1295;139626;-94
2023/12/21 06:49:11;;;;;;;12.00;7.90;;;;;;;5.83;100.00;98392.84;217207;1295;138691;-94
2023/12/21 06:54:11;;;;;;;16.00;9.20;;;;;;;5.89;100.00;98393.61;216839;1295;139758;-93
2023/12/21 06:59:12;;;;;;;13.00;8.10;;;;;;;5.94;100.00;98384.55;217528;1294;138660;-95
2023/12/21 07:04:17;;;;;;;12.60;8.60;;;;;;;5.98;100.00;98374.79;216895;1295;139865;-95
2023/12/21 07:09:19;;;;;;;14.00;8.80;;;;;;;6.01;100.00;98365.09;217322;1295;139200;-94
2023/12/21 07:14:20;;;;;;;14.30;8.80;;;;;;;6.06;100.00;98362.11;216964;1295;140010;-92
2023/12/21 07:19:21;;;;;;;14.10;9.00;;;;;;;6.10;100.00;98353.97;217381;1296;138856;-93
2023/12/21 07:24:23;;;;;;;15.50;10.00;;;;;;;6.14;100.00;98349.52;216986;1296;139774;-95
2023/12/21 07:29:24;;;;;;;16.80;9.80;;;;;;;6.16;100.00;98336.33;217383;1295;138878;-95
2023/12/21 07:34:25;;;;;;;21.60;11.30;;;;;;;6.22;100.00;98322.48;217071;1295;139574;-94
2023/12/21 07:39:25;;;;;;;34.60;16.90;;;;;;;6.25;100.00;98304.90;217410;1294;142289;-91
2023/12/21 07:44:26;;;;;;;15.00;7.80;;;;;;;6.29;100.00;98299.66;216828;1295;140245;-94
2023/12/21 07:49:27;;;;;;;10.50;5.90;;;;;;;6.32;100.00;98288.17;217479;1295;138766;-92
2023/12/21 07:54:28;;;;;;;10.40;6.60;;;;;;;6.35;100.00;98276.44;217116;1296;139730;-94
2023/12/21 07:59:29;;;;;;;10.00;6.30;;;;;;;6.39;100.00;98268.77;217378;1293;138514;-94
2023/12/21 08:04:31;;;;;;;12.30;5.90;;;;;;;6.43;100.00;98259.05;216756;1295;140193;-91
2023/12/21 08:09:31;;;;;;;9.00;5.10;;;;;;;6.47;100.00;98252.15;217392;1295;138889;-91
2023/12/21 08:14:37;;;;;;;57.10;31.20;;;;;;;6.51;100.00;98236.44;216889;1295;140565;-94
2023/12/21 08:19:37;;;;;;;27.00;16.10;;;;;;;6.55;100.00;98235.08;217364;1295;138929;-92
2023/12/21 08:24:39;;;;;;;17.50;8.60;;;;;;;6.59;100.00;98217.00;217009;1294;141221;-94
2023/12/21 08:29:40;;;;;;;22.90;12.80;;;;;;;6.62;100.00;98200.81;217690;1295;96073;-94
2023/12/21 08:34:46;;;;;;;20.50;11.60;;;;;;;6.64;100.00;98189.33;216923;1296;139493;-91
2023/12/21 08:39:50;;;;;;;15.80;9.30;;;;;;;6.66;100.00;98181.42;217103;1296;140264;-95
2023/12/21 08:44:51;;;;;;;10.60;6.70;;;;;;;6.69;100.00;98173.89;217541;1294;138791;-93
2023/12/21 08:49:53;;;;;;;11.10;7.10;;;;;;;6.72;100.00;98165.50;216830;1296;140096;-93
2023/12/21 08:54:53;;;;;;;12.80;7.70;;;;;;;6.74;100.00;98145.41;217707;1293;140025;-95
2023/12/21 08:59:55;;;;;;;11.70;7.40;;;;;;;6.75;100.00;98130.40;217095;1294;140681;-95
2023/12/21 09:04:58;;;;;;;12.90;7.90;;;;;;;6.78;100.00;98123.50;217462;1293;139228;-93
2023/12/21 09:10:00;;;;;;;11.20;7.10;;;;;;;6.81;100.00;98118.08;217034;1294;139565;-91
2023/12/21 09:15:01;;;;;;;13.30;8.20;;;;;;;6.83;100.00;98104.07;217403;1295;139283;-95
2023/12/21 09:20:02;;;;;;;14.70;9.10;;;;;;;6.84;100.00;98093.67;216824;1295;140145;-94
2023/12/21 09:25:04;;;;;;;12.10;7.90;;;;;;;6.86;100.00;98073.51;217465;1295;139924;-93
2023/12/21 09:30:06;;;;;;;11.30;6.90;;;;;;;6.86;100.00;98051.64;217061;1294;140347;-91
2023/12/21 09:35:07;;;;;;;9.30;5.80;;;;;;;6.88;100.00;98041.84;217538;1295;138665;-92
2023/12/21 09:40:09;;;;;;;9.60;5.40;;;;;;;6.87;100.00;98017.58;217039;1294;139698;-92
2023/12/21 09:45:11;;;;;;;9.80;5.70;;;;;;;6.86;100.00;97993.29;217472;1295;139648;-94
2023/12/21 09:50:13;;;;;;;6.70;4.20;;;;;;;6.86;100.00;97982.29;216408;1295;556305;-93
2023/12/21 09:55:17;;;;;;;6.70;4.10;;;;;;;6.87;100.00;97965.23;217257;1295;139368;-93
2023/12/21 10:00:18;;;;;;;7.50;3.90;;;;;;;6.89;100.00;97952.56;216863;1295;139754;-94
2023/12/21 10:05:19;;;;;;;12.20;6.10;;;;;;;6.92;100.00;97943.15;217148;1298;139205;-94
2023/12/21 10:10:20;;;;;;;5.30;3.10;;;;;;;6.93;100.00;97929.54;216817;1294;140398;-94
2023/12/21 10:15:21;;;;;;;6.80;3.80;;;;;;;6.95;100.00;97909.98;217391;1296;139469;-92
2023/12/21 10:20:23;;;;;;;4.80;2.90;;;;;;;6.95;100.00;97884.89;216840;1293;139164;-94
2023/12/21 10:25:25;;;;;;;5.30;2.60;;;;;;;6.96;100.00;97869.58;217373;1294;139381;-92
2023/12/21 10:30:26;;;;;;;6.00;2.90;;;;;;;6.96;100.00;97846.85;216925;1296;139294;-94
2023/12/21 10:35:28;;;;;;;5.90;3.10;;;;;;;6.96;100.00;97830.13;217589;1294;138969;-93
2023/12/21 10:40:30;;;;;;;6.00;2.90;;;;;;;6.97;100.00;97809.65;216818;1294;140331;-93
2023/12/21 10:45:31;;;;;;;7.60;3.30;;;;;;;6.97;100.00;97792.30;217502;1294;139323;-93
2023/12/21 10:50:34;;;;;;;5.50;2.80;;;;;;;6.98;100.00;97774.04;216999;1293;139312;-94
2023/12/21 10:55:35;;;;;;;6.80;3.50;;;;;;;6.97;100.00;97753.88;217458;1296;139275;-93
2023/12/21 11:00:36;;;;;;;7.50;3.40;;;;;;;6.97;100.00;97738.02;217263;1295;140114;-94
2023/12/21 11:05:40;;;;;;;9.00;3.50;;;;;;;6.97;100.00;97720.45;217607;1294;96425;-94
2023/12/21 11:10:41;;;;;;;4.90;2.90;;;;;;;6.97;100.00;97703.19;216948;1294;139494;-93
2023/12/21 11:15:44;;;;;;;6.30;3.20;;;;;;;6.97;100.00;97674.45;217704;1295;139326;-96
2023/12/21 11:20:55;;;;;;;5.30;2.80;;;;;;;6.97;100.00;97660.15;217017;1294;139936;-92
2023/12/21 11:25:57;;;;;;;6.50;2.80;;;;;;;6.97;100.00;97643.98;217538;1295;139105;-93
2023/12/21 11:30:58;;;;;;;6.30;3.00;;;;;;;6.96;100.00;97629.64;216824;1295;139590;-92
2023/12/21 11:35:59;;;;;;;6.20;2.80;;;;;;;6.96;100.00;97605.19;217467;1296;96371;-94
2023/12/21 11:41:01;;;;;;;6.50;2.90;;;;;;;6.97;100.00;97589.46;216758;1295;139556;-93
2023/12/21 11:46:02;;;;;;;9.60;3.20;;;;;;;6.97;100.00;97565.16;217410;1295;138848;-93
2023/12/21 11:51:03;;;;;;;4.40;2.60;;;;;;;6.97;100.00;97542.83;216961;1294;139915;-93
2023/12/21 11:56:11;;;;;;;7.10;2.70;;;;;;;6.98;100.00;97523.04;217496;1295;139045;-93
2023/12/21 12:01:25;;;;;;;6.10;2.90;;;;;;;6.99;100.00;97490.84;216846;1294;139641;-91
2023/12/21 12:06:28;;;;;;;5.20;2.70;;;;;;;7.00;100.00;97469.89;217463;1295;112079;-92
2023/12/21 12:11:29;;;;;;;7.70;3.20;;;;;;;6.99;100.00;97455.14;216885;1294;141224;-93
2023/12/21 12:16:32;;;;;;;7.30;3.20;;;;;;;6.99;100.00;97439.53;217554;1295;138415;-93
2023/12/21 12:21:32;;;;;;;6.50;3.30;;;;;;;7.00;100.00;97430.05;216901;1296;139677;-90
2023/12/21 12:26:36;;;;;;;7.30;3.30;;;;;;;7.02;100.00;97404.79;217485;1294;138963;-93
2023/12/21 12:31:37;;;;;;;9.50;3.50;;;;;;;7.02;100.00;97391.52;216867;1295;140139;-92
2023/12/21 12:36:38;;;;;;;8.00;3.50;;;;;;;7.02;100.00;97370.25;217405;1295;139376;-91
2023/12/21 12:41:38;;;;;;;8.50;4.00;;;;;;;7.05;100.00;97343.88;217004;1295;138958;-90
2023/12/21 12:46:39;;;;;;;5.70;2.50;;;;;;;7.05;100.00;97320.11;217477;1296;138591;-94
2023/12/21 12:51:44;;;;;;;5.70;2.60;;;;;;;7.07;100.00;97303.04;217049;1295;139976;-92
2023/12/21 12:56:48;;;;;;;6.90;2.60;;;;;;;7.07;100.00;97280.53;217487;1295;138846;-95
2023/12/21 13:01:49;;;;;;;6.50;2.20;;;;;;;7.08;100.00;97270.44;216981;1296;139910;-92
2023/12/21 13:06:51;;;;;;;6.90;3.30;;;;;;;7.11;100.00;97250.52;217472;1295;138849;-90
2023/12/21 13:11:52;;;;;;;5.20;2.30;;;;;;;7.14;100.00;97237.30;217102;1295;140179;-91
2023/12/21 13:16:52;;;;;;;4.50;2.00;;;;;;;7.15;100.00;97222.50;217579;1295;138356;-93
2023/12/21 13:21:55;;;;;;;6.50;2.40;;;;;;;7.18;100.00;97199.71;217037;1294;139918;-91
2023/12/21 13:26:55;;;;;;;7.20;3.00;;;;;;;7.21;100.00;97177.51;217498;1295;139054;-92
2023/12/21 13:31:57;;;;;;;6.50;2.40;;;;;;;7.23;100.00;97165.96;217021;1294;139628;-95
2023/12/21 13:36:58;;;;;;;11.30;2.70;;;;;;;7.25;100.00;97156.85;217499;1295;138988;-94
2023/12/21 13:41:59;;;;;;;6.70;2.80;;;;;;;7.27;100.00;97149.83;216963;1295;141168;-92
2023/12/21 13:47:00;;;;;;;9.00;2.90;;;;;;;7.29;100.00;97139.95;217535;1295;138495;-93
2023/12/21 13:52:01;;;;;;;6.00;2.30;;;;;;;7.30;100.00;97116.63;216852;1295;139899;-92
2023/12/21 13:57:01;;;;;;;6.40;2.30;;;;;;;7.31;100.00;97099.63;217556;1294;140416;-94
2023/12/21 14:02:03;;;;;;;8.30;3.10;;;;;;;7.35;100.00;97077.09;216964;1295;141397;-89
2023/12/21 14:07:04;;;;;;;10.00;3.80;;;;;;;7.37;100.00;97066.39;217549;1295;138546;-93
2023/12/21 14:12:05;;;;;;;5.80;2.20;;;;;;;7.39;100.00;97056.02;217114;1293;140083;-89
2023/12/21 14:17:05;;;;;;;6.80;3.00;;;;;;;7.41;100.00;97039.41;217445;1293;138451;-91
2023/12/21 14:22:06;;;;;;;8.20;1.90;;;;;;;7.43;100.00;97026.91;216924;1296;140095;-91
2023/12/21 14:27:07;;;;;;;5.40;1.60;;;;;;;7.46;100.00;97015.09;217429;1296;138999;-91
2023/12/21 14:32:08;;;;;;;3.70;1.90;;;;;;;7.50;100.00;97000.98;216985;1294;139905;-90
2023/12/21 14:37:11;;;;;;;5.60;2.80;;;;;;;7.51;100.00;96982.56;217462;1293;138584;-92
2023/12/21 14:42:11;;;;;;;9.90;3.90;;;;;;;7.53;100.00;96962.67;216981;1296;139983;-90
2023/12/21 14:47:12;;;;;;;10.20;3.80;;;;;;;7.54;100.00;96951.20;217480;1295;138462;-91
2023/12/21 14:52:13;;;;;;;9.50;3.80;;;;;;;7.56;100.00;96938.65;216886;1294;140156;-91
2023/12/21 14:57:14;;;;;;;4.70;2.20;;;;;;;7.57;100.00;96921.40;217563;1294;138761;-90
2023/12/21 15:02:15;;;;;;;6.60;3.30;;;;;;;7.60;100.00;96900.48;216975;1295;139805;-91
2023/12/21 15:07:15;;;;;;;8.50;3.60;;;;;;;7.64;100.00;96885.20;217517;1295;138741;-90
2023/12/21 15:12:19;;;;;;;7.10;2.90;;;;;;;7.65;100.00;96872.27;216987;1295;139724;-92
2023/12/21 15:17:19;;;;;;;6.60;2.90;;;;;;;7.68;100.00;96849.17;217501;1295;138498;-89
2023/12/21 15:22:20;;;;;;;7.80;4.10;;;;;;;7.70;100.00;96834.27;217016;1295;139443;-91
2023/12/21 15:27:21;;;;;;;7.80;3.60;;;;;;;7.71;100.00;96822.11;217449;1293;138861;-91
2023/12/21 15:32:21;;;;;;;9.10;2.80;;;;;;;7.72;100.00;96806.91;216987;1298;139736;-90
2023/12/21 15:37:22;;;;;;;7.80;3.00;;;;;;;7.73;100.00;96793.98;217505;1296;138727;-92
2023/12/21 15:42:22;;;;;;;9.50;3.50;;;;;;;7.72;100.00;96788.86;217039;1295;140614;-88
2023/12/21 15:47:23;;;;;;;14.30;2.90;;;;;;;7.73;100.00;96780.75;217529;1295;139377;-90
2023/12/21 15:52:23;;;;;;;5.50;2.80;;;;;;;7.73;100.00;96781.55;216997;1294;140675;-91
2023/12/21 15:57:24;;;;;;;7.30;2.70;;;;;;;7.72;100.00;96772.75;217514;1296;139220;-92
2023/12/21 16:02:25;;;;;;;10.10;2.70;;;;;;;7.72;100.00;96764.84;216814;1296;140100;-92
2023/12/21 16:07:26;;;;;;;7.30;2.50;;;;;;;7.71;100.00;96735.79;217442;1295;139723;-90
2023/12/21 16:12:26;;;;;;;4.00;2.00;;;;;;;7.72;100.00;96720.59;217071;1295;139996;-91
2023/12/21 16:17:27;;;;;;;7.20;3.00;;;;;;;7.71;100.00;96706.55;217505;1295;139269;-88
2023/12/21 16:22:28;;;;;;;9.30;4.30;;;;;;;7.72;100.00;96692.91;216888;1295;139635;-92
2023/12/21 16:45:14;;;;;;;9.20;3.70;;;;;;;7.75;100.00;96652.64;217336;1294;138823;-96
2023/12/21 16:50:26;;;;;;;8.10;3.00;;;;;;;7.80;100.00;96649.14;216933;1295;140882;-91
2023/12/21 16:55:27;;;;;;;7.10;3.10;;;;;;;7.85;100.00;96651.03;217372;1296;138832;-91
2023/12/21 17:00:29;;;;;;;6.50;2.60;;;;;;;7.88;100.00;96661.57;217001;1295;140174;-87
2023/12/21 17:05:30;;;;;;;6.50;2.60;;;;;;;7.91;100.00;96655.30;217467;1295;138565;-88
2023/12/21 17:10:30;;;;;;;5.50;2.20;;;;;;;7.95;100.00;96661.79;216886;1295;140456;-92
2023/12/21 17:15:32;;;;;;;3.60;1.40;;;;;;;7.96;100.00;96677.67;217390;1296;137506;-92
2023/12/21 17:20:33;;;;;;;6.90;1.60;;;;;;;7.96;100.00;96706.98;216990;1296;139871;-88
2023/12/21 17:25:33;;;;;;;5.80;1.80;;;;;;;7.90;100.00;96732.90;217628;1295;138554;-93
2023/12/21 17:30:34;;;;;;;6.50;1.60;;;;;;;7.79;100.00;96733.63;217121;1295;140369;-93
2023/12/21 17:35:35;;;;;;;5.60;1.90;;;;;;;7.67;100.00;96707.64;217314;1296;139254;-94
2023/12/21 17:40:35;;;;;;;7.80;3.00;;;;;;;7.57;100.00;96708.10;216934;1295;140785;-93
2023/12/21 17:45:36;;;;;;;8.20;2.50;;;;;;;7.46;100.00;96728.97;217444;1295;138852;-92
2023/12/21 17:50:36;;;;;;;8.60;2.30;;;;;;;7.37;100.00;96742.48;216870;1295;139104;-92
2023/12/21 17:55:37;;;;;;;12.60;2.80;;;;;;;7.32;100.00;96751.75;217371;1295;138856;-91
2023/12/21 18:00:37;;;;;;;7.80;1.70;;;;;;;7.27;100.00;96764.64;216806;1297;141408;-90
2023/12/21 18:05:38;;;;;;;8.70;2.60;;;;;;;7.21;100.00;96777.60;217442;1295;139126;-90
2023/12/21 18:10:38;;;;;;;6.40;2.40;;;;;;;7.15;100.00;96793.79;216823;1295;140114;-89
2023/12/21 18:15:39;;;;;;;10.80;2.50;;;;;;;7.11;100.00;96816.98;217395;1295;138730;-91
2023/12/21 18:20:40;;;;;;;11.00;2.00;;;;;;;7.07;100.00;96801.52;216780;1295;139601;-90
2023/12/21 18:25:41;;;;;;;11.40;2.70;;;;;;;7.01;100.00;96807.32;217410;1295;138978;-89
2023/12/21 18:30:43;;;;;;;6.60;1.90;;;;;;;6.97;100.00;96812.69;216997;1295;140409;-89
2023/12/21 18:35:44;;;;;;;10.00;2.50;;;;;;;6.94;100.00;96825.98;217403;1295;139041;-89
2023/12/21 18:40:44;;;;;;;7.10;2.00;;;;;;;6.92;100.00;96825.17;216743;1295;140546;-90
2023/12/21 18:45:48;;;;;;;7.80;1.70;;;;;;;6.89;100.00;96825.21;217150;1295;139630;-90
2023/12/21 18:50:49;;;;;;;10.00;1.90;;;;;;;6.85;100.00;96828.31;216729;1295;140459;-94
2023/12/21 18:55:49;;;;;;;12.30;2.10;;;;;;;6.77;100.00;96848.17;217239;1296;138891;-93
2023/12/21 19:00:53;;;;;;;5.40;1.90;;;;;;;6.71;100.00;96844.85;216750;1295;139667;-87
2023/12/21 19:05:54;;;;;;;12.60;2.70;;;;;;;6.64;100.00;96843.95;217345;1295;96706;-94
2023/12/21 19:10:55;;;;;;;12.10;3.00;;;;;;;6.59;100.00;96839.43;216602;1295;140153;-88
2023/12/21 19:15:56;;;;;;;13.50;2.60;;;;;;;6.57;100.00;96846.28;217250;1295;139464;-90
2023/12/21 19:20:57;;;;;;;7.00;1.60;;;;;;;6.53;100.00;96860.13;216702;1295;140146;-88
2023/12/21 19:25:57;;;;;;;9.00;1.80;;;;;;;6.50;100.00;96868.29;217302;1295;139835;-88
2023/12/21 19:31:00;;;;;;;13.40;2.60;;;;;;;6.47;100.00;96871.88;216699;1295;140357;-88
2023/12/21 19:36:02;;;;;;;13.10;2.30;;;;;;;6.43;100.00;96861.02;217184;1295;107911;-91
2023/12/21 19:41:04;;;;;;;11.40;2.70;;;;;;;6.37;100.00;96876.01;216743;1295;139682;-91
2023/12/21 19:46:05;;;;;;;14.20;3.10;;;;;;;6.32;100.00;96889.49;217214;1295;139572;-90
2023/12/21 19:51:05;;;;;;;16.30;2.80;;;;;;;6.27;100.00;96899.05;216683;1295;141430;-88
2023/12/21 19:56:06;;;;;;;11.20;3.40;;;;;;;6.24;100.00;96913.03;217158;1295;138981;-88
2023/12/21 20:01:08;;;;;;;13.60;2.50;;;;;;;6.20;100.00;96920.79;216770;1295;139394;-89
2023/12/21 20:06:08;;;;;;;13.80;2.90;;;;;;;6.18;100.00;96914.15;217196;1295;96735;-92
2023/12/21 20:11:09;;;;;;;12.50;2.90;;;;;;;6.14;100.00;96917.59;216609;1295;139500;-89
2023/12/21 20:16:10;;;;;;;14.50;2.40;;;;;;;6.12;100.00;96909.55;217299;1295;139178;-89
2023/12/21 20:21:15;;;;;;;13.20;2.60;;;;;;;6.09;100.00;96917.12;216734;1295;139547;-95
2023/12/21 20:26:15;;;;;;;11.10;2.20;;;;;;;6.06;100.00;96924.23;217238;1295;138960;-87
2023/12/21 20:31:16;;;;;;;18.90;2.80;;;;;;;6.02;100.00;96928.38;216635;1295;140989;-88
2023/12/21 20:36:17;;;;;;;15.40;2.90;;;;;;;5.97;100.00;96932.18;217186;1295;96038;-88
2023/12/21 20:41:17;;;;;;;17.70;3.00;;;;;;;5.95;100.00;96934.34;216569;1295;139692;-88
2023/12/21 20:46:18;;;;;;;13.40;2.00;;;;;;;5.93;100.00;96934.16;217167;1295;138710;-93
2023/12/21 20:51:19;;;;;;;9.20;2.20;;;;;;;5.90;100.00;96938.06;216518;1295;139912;-86
2023/12/21 20:56:20;;;;;;;11.70;2.60;;;;;;;5.86;100.00;96944.45;217216;1295;139554;-87
2023/12/21 21:01:20;;;;;;;13.40;2.20;;;;;;;5.80;100.00;96941.73;216699;1295;139663;-88
2023/12/21 21:06:22;;;;;;;14.60;2.80;;;;;;;5.72;100.00;96945.45;217244;1295;103926;-87
2023/12/21 21:11:22;;;;;;;13.90;3.30;;;;;;;5.64;100.00;96953.14;216560;1295;140397;-91
2023/12/21 21:16:25;;;;;;;11.40;2.70;;;;;;;5.54;100.00;96963.52;217052;1295;138653;-87
2023/12/21 21:21:27;;;;;;;18.20;2.30;;;;;;;5.45;100.00;96973.70;216616;1296;140296;-89
2023/12/21 21:26:27;;;;;;;20.90;3.30;;;;;;;5.36;100.00;96978.34;217171;1295;138731;-87
2023/12/21 21:31:28;;;;;;;16.50;2.60;;;;;;;5.31;100.00;96986.42;216614;1296;140423;-89
2023/12/21 21:36:28;;;;;;;13.80;3.70;;;;;;;5.27;100.00;96995.48;217204;1295;96291;-88
2023/12/21 21:41:29;;;;;;;22.10;3.30;;;;;;;5.23;100.00;96995.50;216476;1295;139453;-86
2023/12/21 21:46:30;;;;;;;14.20;2.70;;;;;;;5.23;100.00;97000.64;216896;1295;273702;-87
2023/12/21 21:51:35;;;;;;;20.10;3.70;;;;;;;5.21;100.00;96995.85;216740;1295;140548;-88
2023/12/21 21:56:39;;;;;;;19.80;3.50;;;;;;;5.20;100.00;96997.66;217166;1295;138763;-88
2023/12/21 22:01:45;;;;;;;22.20;3.20;;;;;;;5.18;100.00;97005.96;216830;1295;139807;-85
2023/12/21 22:06:45;;;;;;;20.00;4.30;;;;;;;5.18;100.00;97005.78;217347;1295;111818;-86
2023/12/21 22:11:46;;;;;;;21.20;3.90;;;;;;;5.19;100.00;97006.47;216731;1295;140405;-87
2023/12/21 22:16:47;;;;;;;23.80;4.30;;;;;;;5.17;100.00;97009.48;217328;1295;139882;-87
2023/12/21 22:21:48;;;;;;;19.60;4.60;;;;;;;5.17;100.00;97009.48;216622;1295;140070;-88
2023/12/21 22:26:48;;;;;;;27.80;4.10;;;;;;;5.18;100.00;96999.11;217170;1295;139332;-89
2023/12/21 22:31:49;;;;;;;22.50;3.70;;;;;;;5.16;100.00;96986.91;216536;1295;140252;-87
2023/12/21 22:36:49;;;;;;;20.70;3.40;;;;;;;5.17;100.00;96993.59;217205;1295;96263;-88
2023/12/21 22:41:50;;;;;;;20.70;3.40;;;;;;;5.19;100.00;96984.44;216649;1295;139457;-88
2023/12/21 22:46:55;;;;;;;19.10;3.50;;;;;;;5.19;100.00;96979.09;217184;1295;139041;-88
2023/12/21 22:51:59;;;;;;;23.50;3.80;;;;;;;5.19;100.00;96975.57;216651;1295;140431;-93
2023/12/21 22:56:59;;;;;;;24.70;5.50;;;;;;;5.19;100.00;96963.20;217334;1295;138989;-87
2023/12/21 23:02:00;;;;;;;19.90;4.10;;;;;;;5.20;100.00;96971.95;216724;1295;141473;-92
2023/12/21 23:07:01;;;;;;;17.70;3.40;;;;;;;5.21;100.00;96971.55;217272;1295;139305;-91
2023/12/21 23:12:06;;;;;;;21.20;4.00;;;;;;;5.20;100.00;96972.35;217102;1295;140811;-90
2023/12/21 23:17:07;;;;;;;25.50;4.50;;;;;;;5.21;100.00;96976.83;217361;1295;140090;-93